Time;durP1;ratioP1;P1;durP2;ratioP2;P2;SDS_P1;SDS_P2;PMS_P1;PMS_P2;Temp;Humidity;BMP_temperature;BMP_pressure;BME280_temperature;BME280_humidity;BME280_pressure;Samples;Min_cycle;Max_cycle;Signal;HPM_P1;HPM_P2
2022/10/14 00:01:48;;;;;;;18.17;6.73;;;;;;;;;;5073037;28;20217;-70
2022/10/14 00:04:15;;;;;;;16.47;8.30;;;;;;;;;;5091732;28;20185;-69
2022/10/14 00:06:41;;;;;;;14.60;8.03;;;;;;;;;;5073443;28;20210;-69
2022/10/14 00:09:09;;;;;;;15.33;8.20;;;;;;;;;;5094892;28;20185;-69
2022/10/14 00:11:36;;;;;;;15.00;8.53;;;;;;;;;;5094085;28;20232;-70
2022/10/14 00:14:09;;;;;;;15.87;8.50;;;;;;;;;;5093498;28;20197;-70
2022/10/14 00:16:38;;;;;;;13.60;7.70;;;;;;;;;;5093943;28;20663;-69
2022/10/14 00:19:08;;;;;;;16.60;8.60;;;;;;;;;;5093917;28;20551;-70
2022/10/14 00:21:36;;;;;;;15.60;9.30;;;;;;;;;;5093641;28;20207;-69
2022/10/14 00:24:03;;;;;;;15.13;8.27;;;;;;;;;;5093913;28;20329;-69
2022/10/14 00:26:31;;;;;;;14.50;9.53;;;;;;;;;;5101363;28;20552;-69
2022/10/14 00:28:58;;;;;;;14.90;9.77;;;;;;;;;;5073118;28;20280;-70
2022/10/14 00:31:24;;;;;;;13.67;8.70;;;;;;;;;;5090981;28;20170;-69
2022/10/14 00:33:51;;;;;;;18.30;8.97;;;;;;;;;;5072968;28;20247;-69
2022/10/14 00:36:18;;;;;;;16.00;9.33;;;;;;;;;;5073013;28;20660;-69
2022/10/14 00:38:45;;;;;;;16.73;9.27;;;;;;;;;;5073107;28;20213;-69
2022/10/14 00:41:13;;;;;;;14.63;8.80;;;;;;;;;;5072418;28;20190;-70
2022/10/14 00:43:49;;;;;;;17.77;9.87;;;;;;;;;;5073738;28;20193;-70
2022/10/14 00:46:16;;;;;;;16.07;8.93;;;;;;;;;;5072866;28;20224;-69
2022/10/14 00:48:42;;;;;;;17.87;9.20;;;;;;;;;;5090726;28;20278;-69
2022/10/14 00:51:09;;;;;;;18.80;9.00;;;;;;;;;;5072729;28;20243;-69
2022/10/14 00:53:36;;;;;;;15.93;8.50;;;;;;;;;;5072081;28;20300;-69
2022/10/14 00:56:03;;;;;;;15.07;8.20;;;;;;;;;;5072595;28;20181;-69
2022/10/14 00:58:29;;;;;;;14.93;8.07;;;;;;;;;;5072188;28;20276;-69
2022/10/14 01:00:56;;;;;;;13.70;8.30;;;;;;;;;;5072484;28;20197;-69
2022/10/14 01:03:23;;;;;;;14.80;7.93;;;;;;;;;;5090695;28;20186;-69
2022/10/14 01:05:58;;;;;;;14.33;9.30;;;;;;;;;;5072095;28;20189;-69
2022/10/14 01:08:27;;;;;;;13.53;9.00;;;;;;;;;;5090402;28;20250;-69
2022/10/14 01:10:57;;;;;;;17.50;9.47;;;;;;;;;;5072334;28;20263;-69
2022/10/14 01:13:30;;;;;;;13.33;8.40;;;;;;;;;;5090274;28;20279;-69
2022/10/14 01:16:09;;;;;;;18.70;8.27;;;;;;;;;;5085336;28;20646;-69
2022/10/14 01:18:42;;;;;;;14.70;8.20;;;;;;;;;;5110415;28;20189;-69
2022/10/14 01:21:11;;;;;;;17.23;9.60;;;;;;;;;;5109451;28;20199;-69
2022/10/14 01:23:39;;;;;;;17.40;8.87;;;;;;;;;;5109248;28;20189;-69
2022/10/14 01:26:05;;;;;;;12.73;8.63;;;;;;;;;;5110192;28;20275;-69
2022/10/14 01:28:51;;;;;;;20.30;9.97;;;;;;;;;;5110472;28;20276;-69
2022/10/14 01:31:21;;;;;;;15.10;8.40;;;;;;;;;;5110339;28;20189;-69
2022/10/14 01:33:50;;;;;;;17.10;11.13;;;;;;;;;;5059345;28;20689;-69
2022/10/14 01:36:31;;;;;;;21.13;11.50;;;;;;;;;;5055152;28;20239;-69
2022/10/14 01:39:01;;;;;;;21.60;11.87;;;;;;;;;;5091937;28;20199;-69
2022/10/14 01:41:29;;;;;;;19.57;12.20;;;;;;;;;;5091716;28;20245;-69
2022/10/14 01:43:58;;;;;;;18.47;10.50;;;;;;;;;;5075393;28;20283;-69
2022/10/14 01:46:25;;;;;;;14.50;9.40;;;;;;;;;;5092204;28;20201;-69
2022/10/14 01:48:53;;;;;;;22.63;12.10;;;;;;;;;;5074918;28;20279;-69
2022/10/14 01:51:21;;;;;;;21.13;11.40;;;;;;;;;;5074568;28;20191;-69
2022/10/14 01:53:51;;;;;;;19.90;10.63;;;;;;;;;;5074928;28;20219;-69
2022/10/14 01:56:18;;;;;;;19.63;11.10;;;;;;;;;;5108669;28;20201;-69
2022/10/14 01:58:44;;;;;;;18.20;9.30;;;;;;;;;;5074951;28;20220;-69
2022/10/14 02:01:11;;;;;;;20.47;11.10;;;;;;;;;;5074856;28;20667;-69
2022/10/14 02:03:41;;;;;;;15.63;10.07;;;;;;;;;;5108629;28;20211;-69
2022/10/14 02:06:10;;;;;;;17.13;10.07;;;;;;;;;;5100417;28;20185;-69
2022/10/14 02:08:58;;;;;;;15.50;9.70;;;;;;;;;;5071569;28;20193;-69
2022/10/14 02:11:24;;;;;;;15.63;10.00;;;;;;;;;;5088105;28;20707;-69
2022/10/14 02:14:16;;;;;;;21.37;11.87;;;;;;;;;;5071549;28;20220;-69
2022/10/14 02:16:47;;;;;;;20.47;11.77;;;;;;;;;;5054589;28;20556;-69
2022/10/14 02:19:22;;;;;;;16.17;10.37;;;;;;;;;;5071137;28;20244;-69
2022/10/14 02:21:52;;;;;;;19.80;11.17;;;;;;;;;;5087456;28;20193;-69
2022/10/14 02:24:23;;;;;;;17.27;10.40;;;;;;;;;;5089738;28;20196;-69
2022/10/14 02:26:50;;;;;;;15.67;10.63;;;;;;;;;;5071110;28;20730;-69
2022/10/14 02:29:17;;;;;;;17.07;10.77;;;;;;;;;;5071369;28;20196;-69
2022/10/14 02:31:44;;;;;;;16.83;10.30;;;;;;;;;;5085828;28;20227;-69
2022/10/14 02:34:11;;;;;;;16.77;10.23;;;;;;;;;;5074771;28;20586;-69
2022/10/14 02:36:38;;;;;;;16.40;10.00;;;;;;;;;;5091124;28;20693;-70
2022/10/14 02:39:05;;;;;;;15.80;8.83;;;;;;;;;;5091697;28;20602;-70
2022/10/14 02:41:32;;;;;;;17.67;9.43;;;;;;;;;;5074774;28;20197;-70
2022/10/14 02:43:59;;;;;;;18.20;10.47;;;;;;;;;;5074426;28;20227;-69
2022/10/14 02:46:27;;;;;;;16.20;10.50;;;;;;;;;;5091211;28;20201;-69
2022/10/14 02:48:54;;;;;;;16.80;10.50;;;;;;;;;;5074768;28;20959;-69
2022/10/14 02:51:20;;;;;;;13.57;9.63;;;;;;;;;;5109351;28;20185;-69
2022/10/14 02:53:47;;;;;;;21.27;10.70;;;;;;;;;;5091142;28;20200;-69
2022/10/14 02:56:14;;;;;;;19.10;11.20;;;;;;;;;;5108427;28;20192;-69
2022/10/14 02:58:40;;;;;;;18.50;10.97;;;;;;;;;;5090709;28;20291;-69
2022/10/14 03:01:07;;;;;;;17.73;10.80;;;;;;;;;;5107849;28;20197;-69
2022/10/14 03:03:34;;;;;;;16.73;10.47;;;;;;;;;;5108100;28;20647;-69
2022/10/14 03:06:02;;;;;;;19.60;10.70;;;;;;;;;;5108062;28;20219;-69
2022/10/14 03:08:29;;;;;;;18.57;10.93;;;;;;;;;;5107663;28;20180;-69
2022/10/14 03:10:57;;;;;;;22.87;10.73;;;;;;;;;;5085191;28;20563;-69
2022/10/14 03:13:25;;;;;;;14.47;9.17;;;;;;;;;;5053996;28;20305;-70
2022/10/14 03:15:51;;;;;;;21.63;11.13;;;;;;;;;;5087626;28;20668;-70
2022/10/14 03:18:18;;;;;;;18.70;10.30;;;;;;;;;;5074026;28;20244;-69
2022/10/14 03:20:47;;;;;;;16.77;10.17;;;;;;;;;;5090870;28;20193;-69
2022/10/14 03:23:22;;;;;;;19.73;11.50;;;;;;;;;;5075225;28;20189;-69
2022/10/14 03:25:51;;;;;;;17.80;10.80;;;;;;;;;;5091250;28;20236;-69
2022/10/14 03:28:23;;;;;;;18.27;11.77;;;;;;;;;;5090897;28;20189;-70
2022/10/14 03:31:11;;;;;;;15.70;10.53;;;;;;;;;;5091064;28;20684;-69
2022/10/14 03:33:51;;;;;;;16.07;10.13;;;;;;;;;;5059382;28;20213;-70
2022/10/14 03:36:17;;;;;;;16.53;10.27;;;;;;;;;;5090920;28;20198;-69
2022/10/14 03:38:48;;;;;;;19.37;11.87;;;;;;;;;;5087683;28;20200;-71
2022/10/14 03:41:31;;;;;;;19.90;11.17;;;;;;;;;;5084765;28;20201;-72
2022/10/14 03:43:58;;;;;;;20.30;11.00;;;;;;;;;;5083882;28;20225;-70
2022/10/14 03:46:25;;;;;;;16.77;10.40;;;;;;;;;;5083826;28;20328;-71
2022/10/14 03:48:52;;;;;;;18.03;10.53;;;;;;;;;;5070432;28;20194;-69
2022/10/14 03:51:19;;;;;;;18.83;10.30;;;;;;;;;;5091999;28;21005;-69
2022/10/14 03:53:46;;;;;;;18.87;10.33;;;;;;;;;;5081391;28;20497;-69
2022/10/14 03:56:19;;;;;;;14.47;9.23;;;;;;;;;;5084107;28;20317;-70
2022/10/14 03:58:50;;;;;;;17.67;9.43;;;;;;;;;;5098888;28;20208;-69
2022/10/14 04:01:17;;;;;;;18.30;10.53;;;;;;;;;;5069168;28;20602;-70
2022/10/14 04:04:07;;;;;;;20.37;10.80;;;;;;;;;;5085437;28;20193;-72
2022/10/14 04:06:35;;;;;;;18.10;10.97;;;;;;;;;;5082650;28;20451;-71
2022/10/14 04:09:04;;;;;;;16.43;9.27;;;;;;;;;;5083460;28;20648;-75
2022/10/14 04:11:35;;;;;;;21.10;10.47;;;;;;;;;;5083701;28;20181;-74
2022/10/14 04:14:08;;;;;;;19.33;11.43;;;;;;;;;;5066857;28;20794;-73
2022/10/14 04:16:42;;;;;;;25.97;15.63;;;;;;;;;;5068546;28;20926;-71
2022/10/14 04:19:15;;;;;;;25.77;14.97;;;;;;;;;;5084506;28;20204;-68
2022/10/14 04:21:42;;;;;;;26.77;16.60;;;;;;;;;;5111261;28;20188;-71
2022/10/14 04:24:09;;;;;;;23.43;12.10;;;;;;;;;;5110522;28;20438;-70
2022/10/14 04:26:41;;;;;;;26.50;16.47;;;;;;;;;;5093195;28;20200;-70
2022/10/14 04:29:14;;;;;;;23.33;15.13;;;;;;;;;;5092575;28;20196;-72
2022/10/14 04:31:51;;;;;;;24.60;14.93;;;;;;;;;;5082556;28;20254;-70
2022/10/14 04:34:18;;;;;;;24.10;14.73;;;;;;;;;;5097170;27;20236;-72
2022/10/14 04:36:45;;;;;;;24.73;13.77;;;;;;;;;;5092391;28;20462;-72
2022/10/14 04:39:30;;;;;;;26.37;13.33;;;;;;;;;;5090920;28;20266;-75
2022/10/14 04:41:56;;;;;;;21.50;13.10;;;;;;;;;;5092923;28;20442;-72
2022/10/14 04:44:23;;;;;;;21.90;13.73;;;;;;;;;;5091861;28;20214;-72
2022/10/14 04:46:52;;;;;;;24.13;14.07;;;;;;;;;;5090994;28;20606;-78
2022/10/14 04:49:23;;;;;;;23.33;13.67;;;;;;;;;;5072670;28;20229;-77
2022/10/14 04:52:06;;;;;;;25.47;14.40;;;;;;;;;;5086913;28;20312;-76
2022/10/14 04:54:50;;;;;;;26.80;12.80;;;;;;;;;;5072643;28;20755;-71
2022/10/14 04:57:25;;;;;;;20.27;12.83;;;;;;;;;;5059166;28;20224;-71
2022/10/14 04:59:52;;;;;;;22.37;12.77;;;;;;;;;;5100498;28;20323;-73
2022/10/14 05:02:30;;;;;;;20.17;12.40;;;;;;;;;;5088344;28;20679;-73
2022/10/14 05:04:59;;;;;;;25.77;12.80;;;;;;;;;;5104248;28;20458;-74
2022/10/14 05:07:30;;;;;;;22.47;11.10;;;;;;;;;;5100924;28;20442;-68
2022/10/14 05:10:08;;;;;;;20.83;11.83;;;;;;;;;;5083791;28;20208;-69
2022/10/14 05:12:39;;;;;;;18.43;11.33;;;;;;;;;;5084906;28;20209;-71
2022/10/14 05:15:08;;;;;;;19.13;11.33;;;;;;;;;;5082976;28;20228;-71
2022/10/14 05:17:46;;;;;;;22.97;11.73;;;;;;;;;;5068887;28;20522;-68
2022/10/14 05:20:16;;;;;;;16.77;10.90;;;;;;;;;;5102300;28;20191;-70
2022/10/14 05:22:47;;;;;;;19.03;11.70;;;;;;;;;;5082944;28;20471;-71
2022/10/14 05:25:14;;;;;;;22.13;11.47;;;;;;;;;;5084317;28;20541;-71
2022/10/14 05:27:41;;;;;;;16.53;10.87;;;;;;;;;;5083053;28;20896;-71
2022/10/14 05:30:09;;;;;;;19.60;12.00;;;;;;;;;;5091388;28;20559;-69
2022/10/14 05:32:41;;;;;;;18.33;11.50;;;;;;;;;;5096583;28;21173;-69
2022/10/14 05:35:09;;;;;;;19.67;11.73;;;;;;;;;;5081157;28;20609;-73
2022/10/14 05:37:38;;;;;;;19.03;10.70;;;;;;;;;;5059284;28;20222;-69
2022/10/14 05:40:06;;;;;;;19.83;11.90;;;;;;;;;;5073655;28;20204;-71
2022/10/14 05:42:35;;;;;;;19.57;12.13;;;;;;;;;;5080611;28;20881;-71
2022/10/14 05:45:02;;;;;;;20.13;12.10;;;;;;;;;;5084832;28;20297;-71
2022/10/14 05:47:32;;;;;;;26.90;13.07;;;;;;;;;;5057860;28;20280;-72
2022/10/14 05:50:10;;;;;;;22.93;15.27;;;;;;;;;;5084856;28;20293;-71
2022/10/14 05:52:41;;;;;;;21.50;13.50;;;;;;;;;;5085468;28;20499;-70
2022/10/14 05:55:21;;;;;;;29.70;16.10;;;;;;;;;;5075347;28;20491;-71
2022/10/14 05:57:54;;;;;;;29.00;17.57;;;;;;;;;;5071235;28;20860;-71
2022/10/14 06:00:21;;;;;;;32.07;19.90;;;;;;;;;;5071524;28;20966;-71
2022/10/14 06:02:59;;;;;;;32.23;19.27;;;;;;;;;;5084548;28;20190;-71
2022/10/14 06:05:27;;;;;;;26.97;17.00;;;;;;;;;;5078258;28;20448;-72
2022/10/14 06:07:54;;;;;;;31.17;19.80;;;;;;;;;;5063642;28;20632;-70
2022/10/14 06:10:21;;;;;;;27.93;17.17;;;;;;;;;;5088247;28;20558;-72
2022/10/14 06:12:48;;;;;;;28.77;18.23;;;;;;;;;;5073965;28;20804;-69
2022/10/14 06:15:15;;;;;;;32.60;18.10;;;;;;;;;;5074398;28;20632;-70
2022/10/14 06:17:42;;;;;;;33.73;17.83;;;;;;;;;;5087009;28;20204;-71
2022/10/14 06:20:09;;;;;;;52.13;31.23;;;;;;;;;;5067269;28;20288;-59
2022/10/14 06:22:36;;;;;;;35.20;18.90;;;;;;;;;;5072892;28;20226;-71
2022/10/14 06:25:02;;;;;;;37.67;18.60;;;;;;;;;;5073729;28;20193;-71
2022/10/14 06:27:30;;;;;;;27.60;18.50;;;;;;;;;;5073236;28;20221;-71
2022/10/14 06:29:57;;;;;;;29.77;18.60;;;;;;;;;;5072604;28;20221;-71
2022/10/14 06:32:23;;;;;;;36.17;19.83;;;;;;;;;;5071497;28;20359;-71
2022/10/14 06:34:50;;;;;;;34.17;19.93;;;;;;;;;;5069856;28;20510;-71
2022/10/14 06:37:17;;;;;;;30.53;20.40;;;;;;;;;;5088602;28;20228;-70
2022/10/14 06:39:43;;;;;;;39.73;23.33;;;;;;;;;;5105255;28;20189;-69
2022/10/14 06:42:10;;;;;;;37.20;21.93;;;;;;;;;;5091503;28;20186;-69
2022/10/14 06:44:38;;;;;;;38.83;21.37;;;;;;;;;;5089642;28;20224;-69
2022/10/14 06:47:05;;;;;;;81.53;38.03;;;;;;;;;;5099999;28;20280;-69
2022/10/14 06:49:33;;;;;;;55.47;29.93;;;;;;;;;;5081835;28;20185;-69
2022/10/14 06:52:00;;;;;;;36.47;21.93;;;;;;;;;;5077629;28;20514;-70
2022/10/14 06:54:26;;;;;;;39.03;22.43;;;;;;;;;;5077623;28;20224;-69
2022/10/14 06:56:56;;;;;;;34.83;21.43;;;;;;;;;;5095406;28;20564;-69
2022/10/14 06:59:23;;;;;;;31.13;19.90;;;;;;;;;;5095320;28;20196;-69
2022/10/14 07:01:49;;;;;;;34.93;20.90;;;;;;;;;;5092598;28;20185;-73
2022/10/14 07:04:16;;;;;;;37.10;21.00;;;;;;;;;;5103239;28;20228;-73
2022/10/14 07:06:43;;;;;;;37.77;20.13;;;;;;;;;;5106796;28;20208;-72
2022/10/14 07:09:10;;;;;;;29.63;18.63;;;;;;;;;;5088159;28;20264;-72
2022/10/14 07:11:36;;;;;;;33.93;19.90;;;;;;;;;;5105269;28;20243;-71
2022/10/14 07:14:03;;;;;;;31.77;18.93;;;;;;;;;;5088355;28;20185;-72
2022/10/14 07:16:30;;;;;;;31.17;18.57;;;;;;;;;;5103678;28;20193;-72
2022/10/14 07:18:58;;;;;;;31.00;20.07;;;;;;;;;;5088099;28;20667;-71
2022/10/14 07:21:25;;;;;;;29.67;18.27;;;;;;;;;;5086784;28;20201;-72
2022/10/14 07:23:51;;;;;;;29.50;18.90;;;;;;;;;;5105477;28;20200;-70
2022/10/14 07:26:19;;;;;;;30.63;18.33;;;;;;;;;;5086488;28;20196;-70
2022/10/14 07:28:46;;;;;;;30.37;19.40;;;;;;;;;;5068245;28;20609;-71
2022/10/14 07:31:13;;;;;;;36.63;19.63;;;;;;;;;;5104717;28;20309;-71
2022/10/14 07:33:40;;;;;;;29.30;18.57;;;;;;;;;;5103850;28;20584;-71
2022/10/14 07:36:08;;;;;;;29.83;19.23;;;;;;;;;;5085450;28;20216;-73
2022/10/14 07:38:35;;;;;;;28.67;19.00;;;;;;;;;;5102647;28;20320;-72
2022/10/14 07:41:03;;;;;;;28.47;19.57;;;;;;;;;;5098310;28;20209;-71
2022/10/14 07:43:30;;;;;;;31.80;19.67;;;;;;;;;;5090025;28;20686;-71
2022/10/14 07:46:01;;;;;;;34.80;19.63;;;;;;;;;;5097066;28;20194;-71
2022/10/14 07:48:28;;;;;;;35.57;20.93;;;;;;;;;;5086530;28;20205;-71
2022/10/14 07:51:04;;;;;;;32.50;19.97;;;;;;;;;;5097289;28;20199;-72
2022/10/14 07:53:31;;;;;;;35.93;20.90;;;;;;;;;;5088951;28;20184;-72
2022/10/14 07:55:58;;;;;;;32.97;20.57;;;;;;;;;;5097381;28;20200;-73
2022/10/14 07:58:26;;;;;;;39.23;20.53;;;;;;;;;;5084640;28;20716;-72
2022/10/14 08:00:53;;;;;;;34.30;20.97;;;;;;;;;;5095994;28;20197;-70
2022/10/14 08:03:20;;;;;;;35.33;20.17;;;;;;;;;;5086661;28;20193;-72
2022/10/14 08:05:48;;;;;;;30.07;19.67;;;;;;;;;;5096511;28;20200;-72
2022/10/14 08:08:16;;;;;;;35.03;20.07;;;;;;;;;;5101832;28;20193;-72
2022/10/14 08:10:43;;;;;;;31.40;19.30;;;;;;;;;;5100905;27;20207;-72
2022/10/14 08:13:10;;;;;;;31.80;19.80;;;;;;;;;;5086886;28;20223;-72
2022/10/14 08:15:39;;;;;;;28.80;19.17;;;;;;;;;;5100596;28;20717;-67
2022/10/14 08:18:06;;;;;;;32.43;18.63;;;;;;;;;;5075932;28;20327;-68
2022/10/14 08:20:33;;;;;;;30.87;18.53;;;;;;;;;;5096567;28;20193;-69
2022/10/14 08:23:01;;;;;;;29.63;19.60;;;;;;;;;;5099802;28;20177;-70
2022/10/14 08:25:29;;;;;;;29.27;18.47;;;;;;;;;;5101038;28;20227;-72
2022/10/14 08:27:57;;;;;;;28.93;19.03;;;;;;;;;;5096028;28;20193;-71
2022/10/14 08:30:24;;;;;;;25.50;18.07;;;;;;;;;;5081950;28;20321;-71
2022/10/14 08:32:51;;;;;;;23.67;17.97;;;;;;;;;;5096796;28;20220;-72
2022/10/14 08:35:18;;;;;;;28.80;18.57;;;;;;;;;;5091565;28;20205;-69
2022/10/14 08:38:00;;;;;;;27.57;18.80;;;;;;;;;;5068531;28;20304;-70
2022/10/14 08:40:27;;;;;;;28.03;18.27;;;;;;;;;;5103113;28;20329;-71
2022/10/14 08:42:54;;;;;;;27.07;18.40;;;;;;;;;;5105894;28;20275;-69
2022/10/14 08:45:25;;;;;;;25.97;19.13;;;;;;;;;;5095498;28;20217;-69
2022/10/14 08:47:54;;;;;;;28.10;19.00;;;;;;;;;;5088425;28;20195;-71
2022/10/14 08:50:27;;;;;;;27.40;18.53;;;;;;;;;;5080202;28;20547;-73
2022/10/14 08:52:56;;;;;;;27.77;19.03;;;;;;;;;;5072095;28;20553;-71
2022/10/14 08:55:36;;;;;;;31.97;19.73;;;;;;;;;;5087845;28;20208;-68
2022/10/14 08:58:12;;;;;;;25.07;18.47;;;;;;;;;;5096218;28;20250;-70
2022/10/14 09:00:39;;;;;;;33.20;19.80;;;;;;;;;;5107537;28;20192;-70
2022/10/14 09:03:12;;;;;;;29.23;20.07;;;;;;;;;;5089025;28;20190;-71
2022/10/14 09:05:39;;;;;;;31.80;21.03;;;;;;;;;;5081701;28;20188;-71
2022/10/14 09:08:07;;;;;;;30.23;19.73;;;;;;;;;;5097906;28;20276;-70
2022/10/14 09:10:34;;;;;;;29.53;19.90;;;;;;;;;;5090496;28;20651;-70
2022/10/14 09:13:07;;;;;;;34.47;19.60;;;;;;;;;;5084375;28;20191;-68
2022/10/14 09:15:39;;;;;;;26.77;18.83;;;;;;;;;;5093986;28;20237;-70
2022/10/14 09:18:24;;;;;;;29.27;19.17;;;;;;;;;;5097142;28;20193;-70
2022/10/14 09:20:51;;;;;;;29.73;18.63;;;;;;;;;;5092237;28;20280;-69
2022/10/14 09:23:19;;;;;;;28.37;18.97;;;;;;;;;;5098171;28;20189;-69
2022/10/14 09:25:49;;;;;;;29.20;18.63;;;;;;;;;;5095184;28;20261;-72
2022/10/14 09:28:18;;;;;;;26.93;18.77;;;;;;;;;;5088459;28;20235;-71
2022/10/14 09:30:44;;;;;;;26.47;17.80;;;;;;;;;;5090432;28;20844;-71
2022/10/14 09:33:13;;;;;;;25.93;17.60;;;;;;;;;;5101323;28;20249;-69
2022/10/14 09:35:40;;;;;;;28.13;17.50;;;;;;;;;;5085329;28;20210;-69
2022/10/14 09:38:06;;;;;;;25.43;17.77;;;;;;;;;;5080915;28;20228;-70
2022/10/14 09:40:34;;;;;;;23.20;15.93;;;;;;;;;;5082609;28;20200;-69
2022/10/14 09:43:06;;;;;;;26.53;16.40;;;;;;;;;;5105274;28;20254;-69
2022/10/14 09:45:52;;;;;;;29.07;17.00;;;;;;;;;;5100677;28;20275;-70
2022/10/14 09:48:40;;;;;;;24.03;15.93;;;;;;;;;;5099287;28;20190;-69
2022/10/14 09:51:08;;;;;;;23.77;15.90;;;;;;;;;;5096516;28;20217;-69
2022/10/14 09:53:41;;;;;;;25.37;16.27;;;;;;;;;;5105277;28;20211;-70
2022/10/14 09:56:09;;;;;;;21.87;15.73;;;;;;;;;;5084402;28;20278;-69
2022/10/14 09:58:45;;;;;;;25.03;15.83;;;;;;;;;;5104475;28;20219;-72
2022/10/14 10:01:13;;;;;;;29.17;15.77;;;;;;;;;;5087949;28;20207;-73
2022/10/14 10:03:40;;;;;;;28.53;15.93;;;;;;;;;;5104316;28;20185;-71
2022/10/14 10:06:12;;;;;;;23.80;15.90;;;;;;;;;;5088602;28;20667;-72
2022/10/14 10:08:59;;;;;;;20.07;15.03;;;;;;;;;;5105149;28;20253;-72
2022/10/14 10:11:36;;;;;;;20.90;15.30;;;;;;;;;;5105176;28;20203;-72
2022/10/14 10:14:29;;;;;;;24.70;15.43;;;;;;;;;;5104476;28;20219;-71
2022/10/14 10:17:17;;;;;;;23.23;15.47;;;;;;;;;;5099920;28;20629;-71
2022/10/14 10:19:50;;;;;;;24.93;15.03;;;;;;;;;;5092063;28;20214;-68
2022/10/14 10:22:23;;;;;;;21.43;14.57;;;;;;;;;;5105505;28;20220;-68
2022/10/14 10:24:51;;;;;;;24.57;14.67;;;;;;;;;;5105653;28;20505;-69
2022/10/14 10:27:25;;;;;;;23.67;15.23;;;;;;;;;;5109100;28;20188;-68
2022/10/14 10:29:54;;;;;;;22.67;14.30;;;;;;;;;;5092596;28;20306;-68
2022/10/14 10:32:21;;;;;;;19.93;14.30;;;;;;;;;;5094256;28;20767;-68
2022/10/14 10:34:51;;;;;;;22.03;14.57;;;;;;;;;;5109394;28;20261;-68
2022/10/14 10:37:18;;;;;;;22.60;14.97;;;;;;;;;;5089320;28;20801;-68
2022/10/14 10:40:13;;;;;;;23.57;15.57;;;;;;;;;;5108879;28;20195;-71
2022/10/14 10:42:50;;;;;;;24.13;15.63;;;;;;;;;;5099494;28;20667;-70
2022/10/14 10:45:40;;;;;;;20.50;15.10;;;;;;;;;;5089800;28;20196;-73
2022/10/14 10:48:19;;;;;;;21.53;14.67;;;;;;;;;;5087627;28;20201;-74
2022/10/14 10:50:55;;;;;;;24.63;15.80;;;;;;;;;;5101916;28;20284;-70
2022/10/14 10:53:28;;;;;;;22.80;15.83;;;;;;;;;;5102213;28;20187;-75
2022/10/14 10:56:10;;;;;;;26.07;16.30;;;;;;;;;;5096908;28;20209;-71
2022/10/14 10:58:41;;;;;;;28.80;16.80;;;;;;;;;;5098341;28;20194;-71
2022/10/14 11:01:07;;;;;;;24.47;15.43;;;;;;;;;;5092259;28;20185;-71
2022/10/14 11:03:55;;;;;;;23.60;15.37;;;;;;;;;;5098331;28;20193;-73
2022/10/14 11:12:36;;;;;;;22.50;15.93;;;;;;;;;;5088317;28;20181;-70
2022/10/14 11:15:03;;;;;;;22.23;15.80;;;;;;;;;;5102872;28;20194;-71
2022/10/14 11:17:38;;;;;;;21.80;15.57;;;;;;;;;;5096780;28;20205;-70
2022/10/14 11:20:23;;;;;;;22.20;15.53;;;;;;;;;;5080996;28;20196;-72
2022/10/14 11:23:04;;;;;;;21.40;14.13;;;;;;;;;;5103382;28;20193;-73
2022/10/14 11:25:33;;;;;;;25.00;15.73;;;;;;;;;;5093075;28;20717;-75
2022/10/14 11:28:09;;;;;;;23.27;15.37;;;;;;;;;;5099149;28;20196;-71
2022/10/14 11:30:59;;;;;;;19.40;13.50;;;;;;;;;;5107181;28;20222;-71
2022/10/14 11:33:37;;;;;;;23.03;15.00;;;;;;;;;;5103916;28;20267;-72
2022/10/14 11:36:17;;;;;;;21.83;15.70;;;;;;;;;;5094186;28;20297;-71
2022/10/14 11:38:48;;;;;;;21.60;16.13;;;;;;;;;;5086921;28;20621;-71
2022/10/14 11:41:17;;;;;;;20.40;15.43;;;;;;;;;;5094063;28;20276;-71
2022/10/14 11:43:47;;;;;;;26.77;16.67;;;;;;;;;;5111736;28;20241;-71
2022/10/14 11:46:18;;;;;;;26.10;16.43;;;;;;;;;;5095010;28;20297;-71
2022/10/14 11:48:45;;;;;;;23.73;16.57;;;;;;;;;;5105053;28;21047;-71
2022/10/14 11:51:32;;;;;;;27.57;17.43;;;;;;;;;;5080909;28;20243;-71
2022/10/14 11:54:02;;;;;;;24.27;16.77;;;;;;;;;;5108450;28;20656;-71
2022/10/14 11:56:38;;;;;;;26.97;17.53;;;;;;;;;;5090229;28;20251;-70
2022/10/14 11:59:40;;;;;;;26.07;16.93;;;;;;;;;;5105094;28;20958;-71
2022/10/14 12:02:45;;;;;;;24.73;16.03;;;;;;;;;;5044938;28;20578;-74
2022/10/14 12:05:17;;;;;;;19.10;14.60;;;;;;;;;;5018589;28;20188;-76
2022/10/14 12:07:57;;;;;;;24.50;14.10;;;;;;;;;;4996761;28;20195;-77
2022/10/14 12:10:27;;;;;;;21.77;14.30;;;;;;;;;;5056633;28;20235;-71
2022/10/14 12:12:55;;;;;;;22.53;13.60;;;;;;;;;;5099146;28;20215;-75
2022/10/14 12:15:22;;;;;;;21.53;14.07;;;;;;;;;;5083898;28;20183;-74
2022/10/14 12:17:51;;;;;;;24.90;14.20;;;;;;;;;;5082802;28;20196;-74
2022/10/14 12:20:39;;;;;;;17.10;12.40;;;;;;;;;;5100196;28;20216;-71
2022/10/14 12:23:06;;;;;;;22.20;12.97;;;;;;;;;;5055786;28;20285;-72
2022/10/14 12:25:37;;;;;;;30.07;13.93;;;;;;;;;;5099976;28;20185;-75
2022/10/14 12:28:04;;;;;;;19.80;11.90;;;;;;;;;;5099997;28;20725;-73
2022/10/14 12:30:31;;;;;;;16.80;11.60;;;;;;;;;;5099031;28;20741;-76
2022/10/14 12:33:08;;;;;;;14.63;10.63;;;;;;;;;;5092538;28;20870;-69
2022/10/14 12:35:51;;;;;;;16.80;11.23;;;;;;;;;;5098085;28;20254;-72
2022/10/14 12:38:18;;;;;;;18.73;12.47;;;;;;;;;;5101187;28;20212;-76
2022/10/14 12:40:48;;;;;;;17.97;13.43;;;;;;;;;;5084962;28;20193;-72
2022/10/14 12:43:20;;;;;;;18.93;13.10;;;;;;;;;;5101717;28;20188;-72
2022/10/14 12:45:48;;;;;;;21.57;13.27;;;;;;;;;;5078663;28;21187;-68
2022/10/14 12:48:18;;;;;;;19.67;12.73;;;;;;;;;;5103404;28;20185;-74
2022/10/14 12:50:46;;;;;;;21.83;12.57;;;;;;;;;;5097616;28;20604;-72
2022/10/14 12:53:20;;;;;;;19.10;12.00;;;;;;;;;;5102687;28;20201;-76
2022/10/14 12:55:48;;;;;;;16.80;11.63;;;;;;;;;;5103329;28;20275;-73
2022/10/14 12:58:27;;;;;;;18.13;11.27;;;;;;;;;;5102838;28;20196;-76
2022/10/14 13:00:58;;;;;;;20.40;11.07;;;;;;;;;;5104367;28;20204;-71
2022/10/14 13:03:26;;;;;;;16.83;10.67;;;;;;;;;;5109470;28;20212;-71
2022/10/14 13:05:52;;;;;;;16.40;10.00;;;;;;;;;;5092050;28;20236;-71
2022/10/14 13:08:19;;;;;;;15.80;9.93;;;;;;;;;;5101485;28;20196;-71
2022/10/14 13:10:47;;;;;;;21.50;10.23;;;;;;;;;;5088288;28;20192;-71
2022/10/14 13:13:32;;;;;;;14.10;10.10;;;;;;;;;;5101213;28;20189;-72
2022/10/14 13:15:59;;;;;;;17.63;9.93;;;;;;;;;;5101701;28;20216;-72
2022/10/14 13:18:41;;;;;;;16.17;10.37;;;;;;;;;;5102381;28;20870;-69
2022/10/14 13:21:31;;;;;;;14.43;9.73;;;;;;;;;;5103560;28;20180;-73
2022/10/14 13:23:58;;;;;;;17.07;10.43;;;;;;;;;;5092498;28;20212;-72
2022/10/14 13:26:37;;;;;;;15.20;10.73;;;;;;;;;;5100017;28;20603;-73
2022/10/14 13:29:11;;;;;;;19.90;13.23;;;;;;;;;;5103111;28;20229;-73
2022/10/14 13:31:42;;;;;;;19.77;13.20;;;;;;;;;;5095631;28;20303;-71
2022/10/14 13:34:12;;;;;;;19.23;12.90;;;;;;;;;;5103812;28;20197;-70
2022/10/14 13:36:59;;;;;;;17.60;11.73;;;;;;;;;;5104147;28;20243;-71
2022/10/14 13:39:51;;;;;;;17.47;12.27;;;;;;;;;;5103306;28;20381;-75
2022/10/14 13:42:22;;;;;;;21.93;12.03;;;;;;;;;;5098864;28;20232;-73
2022/10/14 13:44:49;;;;;;;18.07;12.23;;;;;;;;;;5106621;28;20196;-72
2022/10/14 13:47:17;;;;;;;19.73;11.87;;;;;;;;;;5090016;28;20238;-72
2022/10/14 13:49:45;;;;;;;17.37;12.20;;;;;;;;;;5088017;28;20213;-72
2022/10/14 13:52:14;;;;;;;19.90;11.70;;;;;;;;;;5111910;28;20207;-72
2022/10/14 13:54:42;;;;;;;20.37;12.27;;;;;;;;;;5059986;28;20671;-72
2022/10/14 13:57:12;;;;;;;18.63;12.80;;;;;;;;;;5103700;28;20265;-72
2022/10/14 13:59:58;;;;;;;18.63;12.33;;;;;;;;;;5108537;28;20590;-72
2022/10/14 14:02:45;;;;;;;17.90;11.60;;;;;;;;;;5110466;28;20197;-72
2022/10/14 14:05:23;;;;;;;18.67;11.50;;;;;;;;;;5085752;28;20545;-71
2022/10/14 14:07:51;;;;;;;19.03;11.63;;;;;;;;;;5088290;28;20268;-72
2022/10/14 14:10:39;;;;;;;17.40;11.73;;;;;;;;;;5102412;28;20188;-72
2022/10/14 14:13:26;;;;;;;19.53;11.60;;;;;;;;;;5102688;28;20264;-72
2022/10/14 14:15:53;;;;;;;19.53;11.50;;;;;;;;;;5092108;28;20184;-72
2022/10/14 14:18:40;;;;;;;14.33;10.50;;;;;;;;;;5086140;28;20189;-73
2022/10/14 14:21:27;;;;;;;16.67;11.47;;;;;;;;;;5105558;28;20621;-71
2022/10/14 14:24:00;;;;;;;18.23;11.07;;;;;;;;;;5104580;28;20767;-78
2022/10/14 14:26:27;;;;;;;17.90;11.73;;;;;;;;;;5104394;28;20196;-72
2022/10/14 14:28:54;;;;;;;16.37;10.67;;;;;;;;;;5085697;28;20200;-72
2022/10/14 14:31:21;;;;;;;21.10;11.07;;;;;;;;;;5105450;28;20216;-75
2022/10/14 14:33:47;;;;;;;14.07;10.37;;;;;;;;;;5085144;28;20203;-71
2022/10/14 14:36:17;;;;;;;21.40;10.80;;;;;;;;;;5104573;28;20184;-75
2022/10/14 14:39:00;;;;;;;19.10;11.27;;;;;;;;;;5082018;28;20193;-76
2022/10/14 14:41:28;;;;;;;17.53;11.10;;;;;;;;;;5104304;28;20189;-75
2022/10/14 14:43:56;;;;;;;19.20;11.17;;;;;;;;;;5097731;28;20791;-75
2022/10/14 14:46:43;;;;;;;16.27;11.17;;;;;;;;;;5102622;28;20265;-68
2022/10/14 14:49:11;;;;;;;17.83;11.17;;;;;;;;;;5104544;28;20189;-71